• Join FlightAware (Why Join?)
  • Login
  • US Flag 
11:08PM EST


 

Airport Tracker/Info


-or-


 

Live Flight TrackerFlight Track Log ✈ JBU917 ✈ 18-May-2013 ✈ KJFK - KORD

Flight Track Log - Related Links

Times and Time Zones

All times are in EDT time to prevent confusion due to time zone crossing. See the JBU917 flight status page for this flight to view local times or setup timezone preferences in your user account.

Time Position Orientation Groundspeed Altitude Reporting Facility
EDT Latitude Longitude Course Direction KTS MPH feet Rate Location/Type
08:51PM 40.6167 -73.7333 306° West 172 198 1,700  Level New York TRACON
08:52PM 40.6500 -73.6500 62° Northeast 235 270 4,100 2,700 Climbing New York TRACON
08:53PM 40.7944 -74.0722 304° West  Level FlightAware Approximate
08:53PM 40.7000 -73.6000 37° Northeast 273 314 7,200  Level New York TRACON
08:54PM 40.8483 -74.1799 303° West  Level FlightAware Approximate
08:54PM 40.7833 -73.5833 North 270 311 10,200  Level New York TRACON
08:55PM 40.9044 -74.2856 306° West  Level FlightAware Approximate
08:55PM 40.8667 -73.5833 360° North 296 341 12,200  Level New York TRACON
08:56PM 40.9615 -74.3905 306° West  Level FlightAware Approximate
08:57PM 40.9658 -73.7500 308° West 343 395 16,100  Level New York Center
08:58PM 41.0050 -73.8478 298° West 348 400 17,800 1,860 Climbing New York Center
08:59PM 41.0433 -73.9653 293° West 338 389 19,800 1,920 Climbing New York Center
09:00PM 41.0778 -74.0825 291° West 344 396 21,700 1,740 Climbing New York Center
09:01PM 41.1175 -74.2164 292° West 350 403 23,300 1,800 Climbing New York Center
09:02PM 41.1436 -74.3225 288° West 350 403 25,300 1,500 Climbing New York Center
09:03PM 41.1794 -74.4483 291° West 356 410 26,400 1,020 Climbing New York Center
09:04PM 41.2208 -74.5803 293° West 373 429 27,400 1,020 Climbing New York Center
09:05PM 41.2583 -74.7122 291° West 378 435 28,500 1,620 Climbing New York Center
09:06PM 41.2992 -74.8581 290° West 384 442 30,700 1,860 Climbing New York Center
09:07PM 41.3364 -74.9847 291° West 378 435 32,300 960 Climbing New York Center
09:08PM 41.3714 -75.1114 290° West 373 429 32,700 600 Climbing New York Center
09:09PM 41.4064 -75.2353 291° West 373 429 33,600 900 Climbing New York Center
09:10PM 41.4431 -75.3622 291° West 373 429 34,600 840 Climbing New York Center
09:11PM 41.4775 -75.4919 290° West 373 429 35,300 600 Climbing New York Center
09:12PM 41.5144 -75.6136 292° West 373 429 35,900 300 Climbing New York Center
09:13PM 41.5506 -75.7439 290° West 373 429 36,000  Climbing New York Center
09:14PM 41.5908 -75.8772 292° West 379 436 36,000  Level New York Center
09:15PM 41.6267 -76.0103 290° West 379 436 36,000  Level New York Center
09:16PM 41.6644 -76.1439 291° West 379 436 36,000  Level New York Center
09:17PM 41.7019 -76.2775 291° West 384 442 36,000  Level New York Center
09:18PM 41.7411 -76.4169 291° West 384 442 36,000  Level New York Center
09:19PM 41.7731 -76.5364 290° West 389 448 36,000  Level New York Center
09:20PM 41.8119 -76.6761 291° West 394 453 36,000  Level New York Center
09:21PM 41.8489 -76.8103 290° West 394 453 36,000  Level New York Center
09:22PM 41.8881 -76.9514 290° West 448 516 36,000  Level Cleveland Center
09:23PM 41.9256 -77.0886 290° West 418 481 36,000  Level Cleveland Center
09:24PM 41.9611 -77.2264 289° West 406 467 36,000  Level Cleveland Center
09:25PM 42.0006 -77.3697 290° West 401 461 36,000  Level Cleveland Center
09:26PM 42.0397 -77.5103 291° West 401 461 36,000  Level Cleveland Center
09:27PM 42.0747 -77.6514 289° West 401 461 36,000  Level Cleveland Center
09:28PM 42.1117 -77.7953 289° West 401 461 36,000  Level Cleveland Center
09:29PM 42.1506 -77.9364 290° West 401 461 36,000  Level Cleveland Center
09:30PM 42.1869 -78.0778 289° West 401 461 36,000  Level Cleveland Center
09:31PM 42.2256 -78.2194 290° West 401 461 36,000  Level Cleveland Center
09:32PM 42.2617 -78.3611 289° West 401 461 36,000  Level Cleveland Center
09:33PM 42.2975 -78.5003 289° West 401 461 36,000  Level Cleveland Center
09:34PM 42.3336 -78.6450 289° West 401 461 36,000  Level Cleveland Center
09:35PM 42.3692 -78.7844 289° West 401 461 36,000  Level Cleveland Center
09:36PM 42.4047 -78.9297 288° West 401 461 36,000  Level Cleveland Center
09:37PM 42.4400 -79.0722 289° West 401 461 36,000  Level Cleveland Center
09:38PM 42.4772 -79.2150 290° West 401 461 36,000  Level Cleveland Center
09:39PM 42.4978 -79.3722 280° West 401 461 36,000  Level Cleveland Center
09:40PM 42.5033 -79.5242 273° West 411 473 36,000  Level Cleveland Center
09:41PM 42.5131 -79.6789 275° West 411 473 36,000  Level Cleveland Center
09:42PM 42.5203 -79.8339 274° West 416 479 36,000  Level Cleveland Center
09:43PM 42.5253 -79.9944 272° West 423 487 36,000  Level Cleveland Center
09:44PM 42.5303 -80.1464 273° West 423 487 36,000  Level Cleveland Center
09:45PM 42.5369 -80.3042 273° West 418 481 36,000  Level Cleveland Center
09:46PM 42.5414 -80.4422 273° West 423 487 36,000  Level Cleveland Center
09:47PM 42.5497 -80.6000 274° West 423 487 36,000  Level Cleveland Center
09:48PM 42.5539 -80.7494 272° West 417 480 36,000  Level Cleveland Center
09:49PM 42.5597 -80.9075 273° West 417 480 36,000  Level Cleveland Center
09:50PM 42.5675 -81.0625 274° West 418 481 36,000  Level Cleveland Center
09:51PM 42.5750 -81.2231 274° West 418 481 36,000  Level Cleveland Center
09:52PM 42.5783 -81.3783 272° West 426 490 36,000  Level Cleveland Center
09:53PM 42.5981 -81.5281 280° West 413 475 36,000  Level Cleveland Center
09:54PM 42.6258 -81.6922 283° West 413 475 36,000  Level Cleveland Center
09:55PM 42.6472 -81.8253 282° West 413 475 36,000  Level Cleveland Center
09:56PM 42.6769 -81.9783 285° West 413 475 36,000  Level Cleveland Center
09:57PM 42.7000 -82.1286 282° West 413 475 36,000  Level Cleveland Center
09:58PM 42.7269 -82.2789 284° West 413 475 36,000  Level Cleveland Center
09:59PM 42.7517 -82.4294 283° West 413 475 36,000  Level Cleveland Center
10:00PM 42.7764 -82.5831 282° West 419 482 36,000  Level Cleveland Center
10:01PM 42.8028 -82.7339 283° West 419 482 36,000  Level Cleveland Center
10:02PM 42.8122 -82.8900 275° West 414 476 36,000  Level Cleveland Center
10:03PM 42.8194 -83.0486 274° West 414 476 36,000  Level Cleveland Center
10:04PM 42.8264 -83.2047 274° West 414 476 36,000  Level Cleveland Center
10:05PM 42.8331 -83.3636 273° West 419 482 36,000  Level Cleveland Center
10:06PM 42.8417 -83.5197 274° West 424 488 36,000  Level Cleveland Center
10:07PM 42.8478 -83.6814 273° West 424 488 36,000  Level Cleveland Center
10:08PM 42.8539 -83.8403 273° West 424 488 36,000  Level Cleveland Center
10:09PM 42.8619 -83.9967 274° West 424 488 36,000  Level Cleveland Center
10:10PM 42.8675 -84.1583 273° West 424 488 36,000  Level Cleveland Center
10:11PM 42.8728 -84.3175 273° West 424 488 36,000 -420 Level Cleveland Center
10:12PM 42.8806 -84.4797 274° West 429 494 35,200 -960 Descending Chicago Center
10:13PM 42.8794 -84.6411 270° West 428 493 34,200 -1,020 Descending Chicago Center
10:14PM 42.8619 -84.8036 262° West 433 498 33,200 -1,020 Descending Chicago Center
10:15PM 42.8453 -84.9672 262° West 435 501 32,200 -600 Descending Chicago Center
10:16PM 42.8264 -85.1342 261° West 444 511 32,000 -120 Descending Chicago Center
10:17PM 42.8083 -85.2978 261° West 440 506 32,000 -300 Level Chicago Center
10:18PM 42.7900 -85.4628 261° West 439 505 31,500 -1,380 Descending Chicago Center
10:19PM 42.7631 -85.6278 258° West 444 511 29,300 -2,100 Descending Chicago Center
10:20PM 42.7350 -85.7853 256° West 429 494 27,300 -2,040 Descending Chicago Center
10:21PM 42.7075 -85.9369 256° West 414 476 25,300 -1,980 Descending Chicago Center
10:22PM 42.6806 -86.0872 256° West 408 470 23,400 -1,860 Descending Chicago Center
10:23PM 42.6539 -86.2300 256° West 392 451 21,600 -1,740 Descending Chicago Center
10:24PM 42.6253 -86.3717 255° West 390 449 20,000 -1,560 Descending Chicago Center
10:25PM 42.5992 -86.5144 256° West 390 449 18,500 -1,440 Descending Chicago Center
10:26PM 42.5731 -86.6547 256° West 385 443 17,100 -1,440 Descending Chicago Center
10:27PM 42.5425 -86.7931 253° West 384 442 15,600 -1,440 Descending Chicago Center
10:28PM 42.5067 -86.9242 250° West 374 430 14,200 -1,440 Descending Chicago Center
10:29PM 42.4714 -87.0533 250° West 369 425 12,700 -1,440 Descending Chicago Center
10:30PM 42.4375 -87.1789 250° West 358 412 11,400 -1,380 Descending Chicago Center
10:31PM 42.4028 -87.3036 249° West 354 407 10,000 -720 Descending Chicago Center
10:32PM 42.3675 -87.4336 250° West 348 400 10,000  Level Chicago Center
10:33PM 42.3256 -87.5517 244° Southwest 350 403 10,000  Level Chicago Center
10:34PM 42.2497 -87.6303 218° Southwest 345 397 10,000  Level Chicago Center
10:35PM 42.1744 -87.7089 218° Southwest 345 397 10,000 -600 Level Chicago Center
10:36PM 42.1106 -87.7767 218° Southwest 296 341 8,900 -1,320 Descending Chicago Center
10:37PM 42.0833 -87.8333 237° Southwest 286 329 8,000 -1,080 Descending Chicago TRACON
10:38PM 42.0667 -87.9500 259° West 274 315 7,100 -540 Descending Chicago TRACON
10:39PM 42.0667 -88.0333 270° West 206 237 6,900 -780 Descending Chicago TRACON
10:40PM 42.0667 -88.1000 270° West 185 213 5,600 -1,440 Descending Chicago TRACON
10:40PM 42.0667 -88.1336 270° West 194 223 5,000 -1,500 Descending Chicago Center
10:41PM 42.0236 -88.1464 192° South 179 206 3,600 -1,200 Descending Chicago Center
10:42PM 42.0000 -88.1167 137° Southeast 173 199 2,900 -660 Descending Chicago TRACON
10:43PM 41.9833 -88.0667 114° Southeast 167 192 2,600 -540 Descending Chicago TRACON
10:44PM 41.9667 -88.0167 114° Southeast 160 184 1,900 -240 Descending Chicago TRACON
10:45PM 41.9667 -87.9667 90° East 143 165 2,200 1,020 Climbing Chicago TRACON
10:46PM 42.0000 -87.9000 56° Northeast 208 239 4,100 900 Climbing Chicago TRACON
10:47PM 42.0667 -87.9333 340° North 229 264 4,100  Level Chicago TRACON
10:48PM 42.0833 -88.0000 289° West 227 261 4,100 -480 Level Chicago TRACON
10:49PM 42.0833 -88.0833 270° West 222 255 3,200 -720 Descending Chicago TRACON
10:50PM 42.0667 -88.1500 251° West 188 216 2,600 -540 Descending Chicago TRACON
10:50PM 42.0556 -88.1622 219° Southwest 208 239 2,500 -120 Descending Chicago Center
10:51PM 42.0111 -88.1614 179° South 176 203 2,500  Level Chicago Center
10:52PM 41.9836 -88.1181 130° Southeast 172 198 2,500  Level Chicago Center
10:53PM 41.9667 -88.0667 114° Southeast 167 192 2,600 -360 Climbing Chicago TRACON
10:54PM 41.9667 -88.0167 90° East 165 190 2,000 -720 Descending Chicago TRACON
10:55PM 41.9667 -87.9667 90° East 136 157 1,300 -720 Descending Chicago TRACON